Time;durP1;ratioP1;P1;durP2;ratioP2;P2;SDS_P1;SDS_P2;PMS_P1;PMS_P2;Temp;Humidity;BMP_temperature;BMP_pressure;BME280_temperature;BME280_humidity;BME280_pressure;Samples;Min_cycle;Max_cycle;Signal;HPM_P1;HPM_P2
2023/10/25 00:02:21;;;;;;;9.07;8.17;;;10.00;99.90;;;9.42;95.44;99643.31;5034069;28;20206;-71
2023/10/25 00:04:54;;;;;;;9.83;8.83;;;10.00;99.90;;;9.35;96.66;99642.38;5033959;28;20211;-72
2023/10/25 00:07:22;;;;;;;10.30;8.63;;;10.00;99.90;;;9.32;97.67;99637.41;5034064;28;20214;-71
2023/10/25 00:09:51;;;;;;;10.43;9.33;;;9.90;99.90;;;9.33;97.71;99636.41;5033945;28;20258;-71
2023/10/25 00:12:21;;;;;;;11.57;9.50;;;10.00;99.90;;;9.32;98.18;99629.38;5033380;28;20640;-71
2023/10/25 00:14:49;;;;;;;10.20;9.20;;;10.00;99.90;;;9.27;98.51;99629.09;5033813;28;20234;-71
2023/10/25 00:17:17;;;;;;;11.03;9.97;;;9.90;99.90;;;9.22;99.07;99638.66;5033780;28;20230;-71
2023/10/25 00:19:45;;;;;;;13.80;10.23;;;9.90;99.90;;;9.19;99.35;99637.16;5033501;28;20206;-71
2023/10/25 00:22:14;;;;;;;11.43;10.23;;;9.90;99.90;;;9.19;99.50;99637.16;5033987;28;20290;-71
2023/10/25 00:24:43;;;;;;;10.57;9.57;;;9.80;99.90;;;9.17;99.36;99644.53;5033623;28;20280;-71
2023/10/25 00:27:11;;;;;;;11.93;10.07;;;9.90;99.90;;;9.16;99.65;99643.72;5033692;28;20203;-71
2023/10/25 00:29:39;;;;;;;11.77;10.43;;;9.80;99.90;;;9.13;99.97;99649.41;5033368;28;20680;-71
2023/10/25 00:32:14;;;;;;;11.87;10.57;;;9.80;99.90;;;9.16;100.00;99645.53;5033631;28;20256;-71
2023/10/25 00:34:42;;;;;;;14.73;10.93;;;9.80;99.90;;;9.15;99.82;99646.53;5033251;28;20641;-71
2023/10/25 00:37:11;;;;;;;12.40;11.20;;;9.80;99.90;;;9.14;100.00;99644.91;5033410;28;20241;-71
2023/10/25 00:39:40;;;;;;;14.80;10.87;;;9.80;99.90;;;9.13;100.00;99637.88;5033226;28;20661;-71
2023/10/25 00:42:09;;;;;;;12.33;11.10;;;9.80;99.90;;;9.12;100.00;99637.06;5033497;28;20207;-71
2023/10/25 00:44:37;;;;;;;15.70;11.43;;;9.80;99.90;;;9.12;100.00;99630.88;5033439;28;20247;-71
2023/10/25 00:47:06;;;;;;;12.53;10.50;;;9.80;99.90;;;9.10;100.00;99638.25;5033476;28;20209;-71
2023/10/25 00:49:35;;;;;;;13.23;11.53;;;9.80;99.90;;;9.12;100.00;99636.22;5033113;28;20615;-71
2023/10/25 00:52:04;;;;;;;15.73;12.03;;;9.80;99.90;;;9.12;100.00;99636.22;5033452;28;20289;-71
2023/10/25 00:54:32;;;;;;;12.50;11.20;;;9.80;99.90;;;9.11;100.00;99637.22;5033780;28;20206;-71
2023/10/25 00:57:03;;;;;;;12.43;11.13;;;9.80;99.90;;;9.08;100.00;99634.91;5037468;28;20313;-71
2023/10/25 00:59:32;;;;;;;12.13;10.83;;;9.80;99.90;;;9.09;100.00;99648.09;5037193;28;20767;-71
2023/10/25 01:02:01;;;;;;;11.63;10.43;;;9.70;99.90;;;9.08;100.00;99645.59;5037450;28;20212;-71
2023/10/25 01:04:30;;;;;;;15.07;10.90;;;9.80;99.90;;;9.09;100.00;99647.25;5037069;28;20585;-71
2023/10/25 01:06:58;;;;;;;13.13;10.23;;;9.80;99.90;;;9.11;100.00;99650.56;5037383;28;20216;-71
2023/10/25 01:09:28;;;;;;;10.33;9.33;;;9.80;99.90;;;9.12;100.00;99641.56;5037322;28;20206;-71
2023/10/25 01:11:56;;;;;;;13.93;9.70;;;9.80;99.90;;;9.11;100.00;99648.72;5037005;28;20245;-71
2023/10/25 01:14:28;;;;;;;12.70;9.13;;;9.80;99.90;;;9.13;100.00;99648.56;5037194;28;20293;-71
2023/10/25 01:16:56;;;;;;;9.90;8.87;;;9.80;99.90;;;9.09;99.88;99653.44;5037024;28;20298;-71
2023/10/25 01:19:25;;;;;;;10.13;8.10;;;9.80;99.90;;;9.10;99.81;99643.59;5037118;28;20207;-71
2023/10/25 01:21:54;;;;;;;8.47;7.57;;;9.80;99.90;;;9.08;99.75;99646.41;5037070;28;20265;-71
2023/10/25 01:24:24;;;;;;;11.00;8.47;;;9.80;99.90;;;9.09;99.90;99641.91;5036998;28;20214;-71
2023/10/25 01:26:52;;;;;;;8.63;7.63;;;9.80;99.90;;;9.08;99.97;99645.59;5036953;28;20238;-72
2023/10/25 01:29:20;;;;;;;11.73;8.17;;;9.80;99.90;;;9.09;99.81;99634.75;5037320;28;20723;-71
2023/10/25 01:31:48;;;;;;;8.23;7.43;;;9.80;99.90;;;9.10;99.71;99638.25;5037390;28;20238;-72
2023/10/25 01:34:18;;;;;;;11.60;7.70;;;9.80;99.90;;;9.08;99.48;99625.06;5037098;28;20211;-72
2023/10/25 01:36:47;;;;;;;10.03;8.40;;;9.80;99.90;;;9.07;98.95;99625.25;5036967;28;20223;-71
2023/10/25 01:39:15;;;;;;;8.40;7.60;;;9.80;99.90;;;9.07;99.23;99628.75;5037188;28;20226;-71
2023/10/25 01:41:44;;;;;;;9.23;7.77;;;9.70;99.90;;;9.04;99.35;99630.94;5036831;28;20238;-71
2023/10/25 01:44:13;;;;;;;8.47;7.67;;;9.70;99.90;;;9.02;99.19;99636.47;5036684;28;20207;-72
2023/10/25 01:46:41;;;;;;;8.47;7.50;;;9.70;99.90;;;9.03;99.28;99632.78;5036606;28;20309;-72
2023/10/25 01:49:09;;;;;;;9.50;7.60;;;9.80;99.90;;;9.00;99.23;99622.47;5036565;28;20203;-72
2023/10/25 01:51:37;;;;;;;10.77;7.93;;;9.70;99.90;;;8.99;99.13;99633.31;5036463;28;20627;-72
2023/10/25 01:54:06;;;;;;;11.30;8.73;;;9.70;99.90;;;8.96;99.98;99631.00;5036492;28;20202;-72
2023/10/25 01:56:34;;;;;;;10.77;7.20;;;9.70;99.90;;;8.96;99.98;99631.00;5036071;28;20780;-72
2023/10/25 01:59:03;;;;;;;10.37;7.57;;;9.70;99.90;;;8.96;99.57;99623.00;5036370;28;20317;-72
2023/10/25 02:01:31;;;;;;;10.30;7.63;;;9.20;99.90;;;8.97;99.62;99632.66;5036347;28;20242;-72
2023/10/25 02:04:00;;;;;;;10.43;8.07;;;9.70;99.90;;;8.96;99.79;99626.50;5036275;28;20206;-72
2023/10/25 02:06:28;;;;;;;8.67;7.37;;;9.70;99.90;;;8.96;99.37;99620.31;5036295;28;20229;-72
2023/10/25 02:08:56;;;;;;;8.70;7.70;;;9.70;99.90;;;8.96;99.44;99625.66;5036218;28;20209;-72
2023/10/25 02:11:24;;;;;;;8.97;7.83;;;9.70;99.90;;;8.97;99.64;99624.66;5036061;28;20249;-72
2023/10/25 02:13:52;;;;;;;9.70;7.53;;;9.70;99.90;;;8.95;99.61;99624.00;5036369;28;20302;-72
2023/10/25 02:16:23;;;;;;;8.20;7.40;;;9.70;99.90;;;8.97;99.43;99620.13;5036213;28;20229;-72
2023/10/25 02:18:51;;;;;;;9.20;7.93;;;9.70;99.90;;;8.98;99.68;99618.28;5036014;28;20664;-72
2023/10/25 02:21:19;;;;;;;11.37;8.00;;;9.70;99.90;;;8.98;99.59;99616.47;5036189;28;20218;-72
2023/10/25 02:23:48;;;;;;;8.93;8.00;;;9.70;99.90;;;8.98;99.83;99615.63;5035624;28;20696;-71
2023/10/25 02:26:16;;;;;;;8.37;7.47;;;9.70;99.90;;;8.99;99.73;99619.97;5035789;28;20227;-71
2023/10/25 02:28:44;;;;;;;11.07;8.17;;;9.70;99.90;;;8.98;99.92;99615.63;5036905;28;20208;-71
2023/10/25 02:31:12;;;;;;;8.80;7.90;;;9.70;99.90;;;8.98;99.80;99618.28;5035820;28;20293;-71
2023/10/25 02:33:42;;;;;;;9.53;7.73;;;9.70;99.90;;;8.99;99.49;99620.78;5035638;28;20219;-71
2023/10/25 02:36:10;;;;;;;10.20;8.00;;;9.80;99.90;;;8.99;99.54;99615.47;5035641;28;20231;-71
2023/10/25 02:38:38;;;;;;;8.13;7.10;;;9.70;99.90;;;8.99;99.95;99619.97;5035575;28;20333;-71
2023/10/25 02:41:06;;;;;;;9.40;7.73;;;9.70;99.90;;;8.99;100.00;99617.28;5035624;28;20298;-71
2023/10/25 02:43:35;;;;;;;9.57;6.77;;;9.70;99.90;;;8.97;99.54;99616.66;5035598;28;20269;-71
2023/10/25 02:46:05;;;;;;;9.33;6.90;;;9.70;99.90;;;8.97;99.68;99616.66;5035139;28;20265;-71
2023/10/25 02:48:34;;;;;;;9.43;7.27;;;9.70;99.90;;;8.97;99.93;99616.66;5035776;28;20233;-71
2023/10/25 02:51:04;;;;;;;7.93;7.13;;;9.70;99.90;;;8.95;99.88;99611.47;5035469;28;20234;-71
2023/10/25 02:53:33;;;;;;;10.73;7.13;;;9.70;99.90;;;8.95;99.92;99618.66;5036472;28;20294;-71
2023/10/25 02:56:01;;;;;;;9.20;6.80;;;9.60;99.90;;;8.94;100.00;99614.31;5035307;28;20313;-72
2023/10/25 02:58:30;;;;;;;7.87;6.77;;;9.70;99.90;;;8.94;99.83;99616.97;5035269;28;20254;-72
2023/10/25 03:00:58;;;;;;;7.20;6.27;;;9.70;99.90;;;8.93;100.00;99620.69;5035285;28;20242;-72
2023/10/25 03:03:29;;;;;;;7.97;6.87;;;9.60;99.90;;;8.94;99.51;99607.13;5035191;28;20252;-72
2023/10/25 03:05:58;;;;;;;10.67;7.00;;;9.70;99.90;;;8.93;99.84;99605.50;5034796;28;20230;-71
2023/10/25 03:08:29;;;;;;;8.83;6.67;;;9.70;99.90;;;8.95;99.63;99615.97;5034980;28;20257;-71
2023/10/25 03:10:57;;;;;;;7.50;6.20;;;9.70;99.90;;;8.95;99.82;99618.66;5035053;28;20293;-72
2023/10/25 03:13:25;;;;;;;6.67;6.07;;;9.70;99.90;;;8.95;99.74;99610.63;5034566;28;20314;-72
2023/10/25 03:15:53;;;;;;;7.83;6.33;;;9.60;99.90;;;8.94;100.00;99614.31;5034939;28;20292;-72
2023/10/25 03:18:22;;;;;;;9.53;6.30;;;9.70;99.90;;;8.93;99.70;99596.66;5034334;28;20297;-72
2023/10/25 03:20:50;;;;;;;9.70;6.30;;;9.70;99.90;;;8.91;99.51;99601.31;5034583;28;20249;-72
2023/10/25 03:23:18;;;;;;;8.00;6.20;;;9.60;99.90;;;8.90;99.67;99599.69;5034797;28;20298;-72
2023/10/25 03:25:48;;;;;;;9.63;6.87;;;9.60;99.90;;;8.91;100.00;99601.31;5034382;28;20601;-72
2023/10/25 03:28:16;;;;;;;8.03;6.10;;;9.60;99.90;;;8.90;99.62;99602.34;5034705;28;20290;-72
2023/10/25 03:30:44;;;;;;;8.67;6.30;;;9.60;99.90;;;8.89;99.90;99608.69;5033900;28;20210;-72
2023/10/25 03:33:12;;;;;;;9.67;6.90;;;9.60;99.90;;;8.87;99.88;99600.84;5033914;28;20206;-72
2023/10/25 03:35:40;;;;;;;7.60;6.20;;;9.60;99.90;;;8.85;99.56;99602.88;5034882;28;20314;-72
2023/10/25 03:38:08;;;;;;;8.27;6.20;;;9.60;99.90;;;8.84;99.93;99593.19;5034185;28;20206;-72
2023/10/25 03:40:36;;;;;;;7.17;5.77;;;9.60;99.90;;;8.84;100.00;99590.53;5034539;28;20295;-72
2023/10/25 03:43:06;;;;;;;8.63;6.53;;;9.50;99.90;;;8.85;99.95;99591.34;5034449;28;20301;-72
2023/10/25 03:45:34;;;;;;;7.30;5.80;;;9.50;99.90;;;8.82;99.92;99591.72;5034343;28;20637;-72
2023/10/25 03:48:02;;;;;;;7.97;6.03;;;9.50;99.90;;;8.85;100.00;99594.03;5034355;28;20302;-72
2023/10/25 03:50:31;;;;;;;9.77;6.47;;;9.50;99.90;;;8.85;100.00;99596.69;5034274;28;20225;-72
2023/10/25 03:52:59;;;;;;;8.00;6.07;;;9.60;99.90;;;8.88;99.89;99589.16;5034241;28;20674;-72
2023/10/25 03:55:27;;;;;;;5.77;5.27;;;9.60;99.90;;;8.91;99.47;99591.47;5034114;28;20280;-72
2023/10/25 03:57:55;;;;;;;7.70;4.93;;;9.60;99.90;;;8.92;99.79;99584.31;5034165;28;20257;-72
2023/10/25 04:00:25;;;;;;;9.27;5.83;;;9.60;99.90;;;8.93;99.13;99584.13;5034292;28;20597;-72
2023/10/25 04:02:53;;;;;;;7.47;5.50;;;9.60;99.90;;;8.94;99.05;99576.94;5034111;28;20302;-72
2023/10/25 04:05:21;;;;;;;9.67;5.63;;;9.60;99.90;;;8.94;98.85;99575.09;5033982;28;20233;-72
2023/10/25 04:07:52;;;;;;;6.57;5.53;;;9.60;99.90;;;8.94;98.78;99571.59;5033999;28;20242;-72
2023/10/25 04:10:21;;;;;;;7.83;5.57;;;9.60;99.90;;;8.95;98.77;99570.59;5034810;28;20274;-73
2023/10/25 04:12:49;;;;;;;6.57;5.43;;;9.60;99.90;;;8.94;98.57;99574.25;5033686;28;20238;-72
2023/10/25 04:15:17;;;;;;;7.00;5.20;;;9.60;99.90;;;8.93;98.30;99572.63;5033936;28;20241;-72
2023/10/25 04:17:47;;;;;;;10.10;5.40;;;9.60;99.90;;;8.92;97.76;99562.94;5034252;28;20298;-72
2023/10/25 04:20:15;;;;;;;7.93;4.97;;;9.60;99.90;;;8.92;98.07;99566.47;5033940;28;20226;-72
2023/10/25 04:22:43;;;;;;;10.33;5.47;;;9.60;99.90;;;8.92;97.98;99566.47;5033843;28;20207;-72
2023/10/25 04:25:12;;;;;;;5.60;5.10;;;9.60;99.90;;;8.90;97.33;99564.97;5033701;28;20334;-72
2023/10/25 04:27:40;;;;;;;6.20;5.20;;;9.50;99.90;;;8.89;97.60;99571.31;5033743;28;20211;-72
2023/10/25 04:30:11;;;;;;;8.67;5.60;;;9.60;99.90;;;8.86;97.61;99572.50;5032519;28;20210;-72
2023/10/25 04:32:39;;;;;;;7.20;5.40;;;9.50;99.90;;;8.83;97.26;99564.88;5033670;28;20242;-72
2023/10/25 04:35:09;;;;;;;6.50;5.20;;;9.50;99.90;;;8.80;97.59;99561.72;5033457;28;20769;-72
2023/10/25 04:37:37;;;;;;;6.93;5.27;;;9.40;99.90;;;8.81;97.48;99563.34;5033610;28;20285;-72
2023/10/25 04:40:07;;;;;;;7.63;5.53;;;9.50;99.90;;;8.79;97.40;99562.72;5033455;28;20284;-72
2023/10/25 04:42:35;;;;;;;7.93;5.63;;;9.40;99.90;;;8.75;96.76;99558.75;5033522;28;20217;-71
2023/10/25 04:45:04;;;;;;;6.17;5.20;;;9.40;99.90;;;8.75;97.17;99559.56;5033155;28;20317;-73
2023/10/25 04:47:32;;;;;;;10.80;6.53;;;9.30;99.90;;;8.71;96.59;99552.09;5033157;28;20210;-73
2023/10/25 04:50:04;;;;;;;7.93;6.00;;;9.30;99.90;;;8.72;96.78;99559.09;5033467;28;20202;-73
2023/10/25 04:52:33;;;;;;;9.10;5.83;;;9.30;99.90;;;8.68;96.20;99552.44;5033459;28;20191;-73
2023/10/25 04:55:01;;;;;;;7.87;6.37;;;9.30;99.90;;;8.69;96.84;99560.28;5033644;28;20313;-73
2023/10/25 04:57:29;;;;;;;6.77;5.73;;;9.30;99.90;;;8.68;95.65;99549.78;5033370;28;20215;-73
2023/10/25 04:59:58;;;;;;;7.80;6.33;;;9.30;99.90;;;8.69;95.76;99554.13;5033319;28;20321;-72
2023/10/25 05:02:26;;;;;;;6.70;5.97;;;9.30;99.90;;;8.66;95.83;99553.44;5033038;28;20628;-73
2023/10/25 05:04:56;;;;;;;7.63;6.00;;;9.30;99.90;;;8.63;95.50;99553.78;5033244;28;20222;-73
2023/10/25 05:07:24;;;;;;;9.70;5.83;;;9.30;99.90;;;8.61;95.84;99547.81;5033249;28;20242;-73
2023/10/25 05:09:55;;;;;;;6.57;5.57;;;9.20;99.90;;;8.59;95.65;99543.69;5033427;28;20597;-73
2023/10/25 05:12:36;;;;;;;6.73;5.67;;;9.30;99.90;;;8.62;95.83;99557.50;5033000;28;20638;-73
2023/10/25 05:15:09;;;;;;;6.27;5.40;;;9.20;99.90;;;8.58;96.25;99553.50;5033151;28;20304;-73
2023/10/25 05:17:39;;;;;;;9.17;5.90;;;9.20;99.90;;;8.53;96.92;99561.19;5033178;28;20297;-72
2023/10/25 05:20:09;;;;;;;7.80;6.47;;;9.20;99.90;;;8.54;97.26;99562.88;5033154;28;20246;-72
2023/10/25 05:22:40;;;;;;;8.93;6.70;;;9.20;99.90;;;8.54;96.45;99562.88;5033156;28;20257;-73
2023/10/25 05:25:12;;;;;;;8.20;6.73;;;9.20;99.90;;;8.51;96.61;99552.56;5033058;28;20226;-73
2023/10/25 05:27:41;;;;;;;9.90;6.70;;;9.10;99.90;;;8.51;96.62;99557.88;5032850;28;20645;-73
2023/10/25 05:30:12;;;;;;;7.40;6.30;;;9.20;99.90;;;8.49;96.09;99551.06;5032735;28;20207;-73
2023/10/25 05:32:46;;;;;;;10.10;6.53;;;9.20;99.90;;;8.46;96.53;99552.25;5033125;28;20278;-73
2023/10/25 05:35:16;;;;;;;9.07;6.17;;;9.10;99.90;;;8.44;96.51;99551.59;5033048;28;20317;-73
2023/10/25 05:37:45;;;;;;;7.43;6.10;;;9.10;99.90;;;8.45;96.49;99553.25;5033030;28;20207;-73
2023/10/25 05:40:16;;;;;;;6.63;5.87;;;9.10;99.90;;;8.45;95.77;99555.09;5032622;28;20317;-73
2023/10/25 05:42:49;;;;;;;6.90;6.20;;;9.10;99.90;;;8.39;94.75;99559.28;5036724;28;20191;-73
2023/10/25 05:45:17;;;;;;;12.57;6.30;;;9.00;99.90;;;8.37;94.68;99560.47;5036526;28;20266;-73
2023/10/25 05:47:46;;;;;;;7.73;6.00;;;9.00;99.90;;;8.34;95.00;99556.31;5036596;28;20293;-73
2023/10/25 05:50:16;;;;;;;8.27;6.53;;;8.90;99.90;;;8.29;94.68;99548.00;5036536;28;20210;-72
2023/10/25 05:52:45;;;;;;;9.67;6.03;;;8.90;99.90;;;8.24;94.77;99555.66;5036562;28;20211;-72
2023/10/25 05:55:17;;;;;;;7.83;6.33;;;8.90;99.90;;;8.22;95.98;99540.88;5036500;28;20237;-74
2023/10/25 05:57:46;;;;;;;8.10;6.40;;;8.80;99.90;;;8.23;95.00;99548.66;5036187;28;20283;-74
2023/10/25 06:00:16;;;;;;;8.03;6.17;;;8.90;99.90;;;8.21;94.96;99550.69;5036048;28;20656;-74
2023/10/25 06:02:45;;;;;;;7.40;6.57;;;8.80;99.90;;;8.17;93.68;99549.38;5036427;28;20245;-74
2023/10/25 06:05:14;;;;;;;7.60;6.67;;;8.80;99.90;;;8.13;94.01;99554.22;5036220;28;20227;-74
2023/10/25 06:07:44;;;;;;;6.90;6.20;;;8.70;99.90;;;8.13;94.46;99548.06;5036269;28;20209;-73
2023/10/25 06:10:15;;;;;;;9.63;6.83;;;8.70;99.90;;;8.15;93.98;99552.19;5036202;28;20209;-73
2023/10/25 06:12:44;;;;;;;8.30;6.47;;;8.80;99.90;;;8.18;93.83;99552.88;5035852;28;20222;-73
2023/10/25 06:15:12;;;;;;;7.47;6.70;;;8.80;99.90;;;8.11;93.39;99547.41;5036083;28;20233;-74
2023/10/25 06:17:41;;;;;;;9.40;7.63;;;8.70;99.90;;;8.08;93.58;99545.91;5036043;28;20298;-73
2023/10/25 06:20:12;;;;;;;8.30;7.43;;;8.70;99.90;;;8.11;93.58;99555.41;5035959;28;20233;-74
2023/10/25 06:22:41;;;;;;;8.13;7.30;;;8.70;99.90;;;8.12;93.54;99546.38;5036034;28;20250;-73
2023/10/25 06:25:10;;;;;;;8.63;7.57;;;8.80;99.90;;;8.07;92.82;99544.25;5035588;28;20724;-73
2023/10/25 06:27:42;;;;;;;10.93;8.03;;;8.70;99.90;;;8.06;93.71;99547.91;5035963;28;20210;-73
2023/10/25 06:30:11;;;;;;;9.90;8.03;;;8.70;99.90;;;8.06;94.77;99547.09;5035925;28;20207;-73
2023/10/25 06:32:41;;;;;;;10.40;7.27;;;8.70;99.90;;;8.05;94.93;99553.41;5035808;28;20211;-73
2023/10/25 06:35:10;;;;;;;9.50;7.13;;;8.70;99.90;;;8.07;94.53;99546.91;5035730;28;20262;-73
2023/10/25 06:37:38;;;;;;;9.53;6.97;;;8.70;99.90;;;8.07;94.94;99554.09;5035426;28;20211;-73
2023/10/25 06:40:08;;;;;;;9.63;6.97;;;8.80;99.90;;;8.04;94.77;99554.44;5035652;28;20281;-73
2023/10/25 06:42:37;;;;;;;8.10;7.23;;;8.70;99.90;;;8.05;94.67;99553.41;5035611;28;20202;-73
2023/10/25 06:45:13;;;;;;;9.87;6.97;;;8.70;99.90;;;8.02;94.98;99549.25;5035518;28;20226;-73
2023/10/25 06:47:43;;;;;;;7.97;7.17;;;8.70;99.90;;;7.99;94.65;99559.44;5035229;28;20195;-65
2023/10/25 06:50:14;;;;;;;11.23;8.47;;;8.60;99.90;;;7.95;94.57;99550.94;5035477;28;20211;-72
2023/10/25 06:52:43;;;;;;;9.60;7.20;;;8.60;99.90;;;7.97;95.15;99548.13;5034569;28;20195;-72
2023/10/25 06:55:14;;;;;;;8.07;7.27;;;8.60;99.90;;;7.98;95.38;99539.94;5035350;28;20226;-73
2023/10/25 06:57:43;;;;;;;9.43;7.57;;;8.60;99.90;;;7.99;95.15;99546.09;5035404;28;20202;-73
2023/10/25 07:00:15;;;;;;;9.00;7.10;;;8.60;99.90;;;8.01;95.63;99546.78;5035236;28;20210;-73
2023/10/25 07:02:52;;;;;;;11.67;7.93;;;8.70;99.90;;;8.01;95.73;99544.94;5035298;28;20195;-73
2023/10/25 07:05:23;;;;;;;10.33;7.63;;;8.70;99.90;;;8.00;96.25;99537.94;5035220;28;20318;-73
2023/10/25 07:07:53;;;;;;;9.00;7.63;;;8.70;99.90;;;8.03;96.49;99536.78;5034851;28;20566;-73
2023/10/25 07:10:23;;;;;;;9.77;8.27;;;8.70;99.90;;;8.04;97.67;99541.09;5035077;28;20210;-73
2023/10/25 07:12:52;;;;;;;8.50;7.33;;;8.70;99.90;;;8.04;97.53;99539.28;5034895;28;20321;-74
2023/10/25 07:15:23;;;;;;;11.33;8.87;;;8.70;99.90;;;8.07;98.60;99540.75;5034900;28;20226;-73
2023/10/25 07:17:52;;;;;;;11.03;9.03;;;8.80;99.90;;;8.08;98.88;99547.75;5035011;28;20249;-73
2023/10/25 07:20:20;;;;;;;10.93;9.07;;;8.80;99.90;;;8.08;98.82;99547.75;5034518;28;20676;-73
2023/10/25 07:22:48;;;;;;;11.60;8.93;;;8.80;99.90;;;8.09;99.52;99541.41;5034904;28;20298;-73
2023/10/25 07:25:17;;;;;;;11.33;9.20;;;8.80;99.90;;;8.11;99.25;99545.56;5034409;28;20676;-73
2023/10/25 07:27:46;;;;;;;12.03;10.23;;;8.80;99.90;;;8.09;100.00;99549.41;5034784;28;20207;-73
2023/10/25 07:30:14;;;;;;;17.27;11.87;;;8.80;99.90;;;8.10;100.00;99548.41;5034671;28;20211;-65
2023/10/25 07:32:43;;;;;;;11.37;10.17;;;8.80;99.90;;;8.09;100.00;99552.91;5034342;28;20661;-72
2023/10/25 07:35:12;;;;;;;12.60;10.60;;;8.80;99.90;;;8.06;100.00;99557.75;5034561;28;20233;-72
2023/10/25 07:37:40;;;;;;;13.70;11.27;;;8.80;99.90;;;8.07;100.00;99559.41;5034276;28;20305;-72
2023/10/25 07:40:10;;;;;;;12.87;11.57;;;8.80;99.90;;;8.08;100.00;99558.41;5034280;28;20774;-72
2023/10/25 07:42:38;;;;;;;12.87;11.53;;;8.80;99.90;;;8.11;100.00;99560.75;5034363;28;20234;-71
2023/10/25 07:45:07;;;;;;;15.70;11.30;;;8.90;99.90;;;8.15;100.00;99556.69;5034079;28;20727;-72
2023/10/25 07:47:36;;;;;;;16.90;10.90;;;8.90;99.90;;;8.18;100.00;99553.72;5034388;28;20242;-71
2023/10/25 07:50:07;;;;;;;11.70;9.77;;;9.00;99.90;;;8.21;100.00;99556.03;5034332;28;20289;-71
2023/10/25 07:52:36;;;;;;;10.30;8.73;;;9.00;99.90;;;8.24;100.00;99555.66;5034334;28;20187;-71
2023/10/25 07:55:05;;;;;;;13.53;10.07;;;9.00;99.90;;;8.29;100.00;99553.34;5034200;28;20254;-72
2023/10/25 07:57:54;;;;;;;13.47;11.00;;;9.10;99.90;;;8.33;100.00;99549.31;5034615;28;20214;-72
2023/10/25 08:00:25;;;;;;;12.63;10.60;;;9.10;99.90;;;8.36;100.00;99556.97;5033895;28;20575;-71
2023/10/25 08:02:53;;;;;;;12.43;10.20;;;9.10;99.90;;;8.39;100.00;99545.94;5033805;28;20665;-71
2023/10/25 08:05:23;;;;;;;15.37;10.60;;;9.20;99.90;;;8.43;100.00;99555.25;5033877;28;20237;-71
2023/10/25 08:07:51;;;;;;;15.63;10.43;;;9.30;99.90;;;8.50;100.00;99550.06;5034248;28;20214;-72
2023/10/25 08:10:19;;;;;;;12.27;10.07;;;9.30;99.90;;;8.57;100.00;99545.69;5033966;28;20242;-72
2023/10/25 08:12:48;;;;;;;11.57;9.37;;;9.30;99.90;;;8.67;100.00;99546.28;5033815;28;20210;-72
2023/10/25 08:15:17;;;;;;;11.90;9.93;;;9.50;99.90;;;8.78;100.00;99539.69;5033776;28;20321;-71
2023/10/25 08:17:45;;;;;;;12.53;10.60;;;9.60;99.90;;;8.93;100.00;99548.59;5033566;28;20553;-71
2023/10/25 08:20:13;;;;;;;12.00;9.50;;;9.80;99.90;;;9.00;100.00;99538.88;5033596;28;20661;-71
2023/10/25 08:22:43;;;;;;;12.23;9.03;;;9.80;99.90;;;9.12;100.00;99540.94;5033725;28;20231;-72
2023/10/25 08:25:11;;;;;;;14.20;9.30;;;10.00;99.90;;;9.22;100.00;99535.31;5033730;28;20231;-72
2023/10/25 08:27:40;;;;;;;10.23;9.13;;;10.10;99.90;;;9.34;100.00;99533.91;5033431;28;20210;-72
2023/10/25 08:30:09;;;;;;;9.67;8.37;;;10.20;99.90;;;9.48;100.00;99529.59;5033760;28;20299;-72
2023/10/25 08:32:37;;;;;;;12.03;8.70;;;10.40;99.90;;;9.60;100.00;99518.25;5033345;28;20576;-72
2023/10/25 08:35:07;;;;;;;10.00;7.90;;;10.60;99.90;;;9.67;99.75;99518.34;5033307;28;20746;-72
2023/10/25 08:37:35;;;;;;;10.17;8.27;;;10.60;99.90;;;9.73;98.65;99522.13;5033595;28;20203;-72
2023/10/25 08:40:10;;;;;;;9.63;7.80;;;10.60;99.90;;;9.77;98.92;99513.56;5033535;28;20261;-72
2023/10/25 08:42:38;;;;;;;11.07;8.13;;;10.70;99.90;;;9.79;97.60;99518.72;5033524;28;20214;-72
2023/10/25 08:45:07;;;;;;;10.70;7.77;;;10.70;99.90;;;9.85;97.58;99523.31;5033467;28;20313;-72
2023/10/25 08:47:37;;;;;;;9.33;7.47;;;10.60;99.90;;;10.01;97.88;99515.09;5033176;28;20662;-72
2023/10/25 08:50:07;;;;;;;8.47;7.23;;;10.90;99.90;;;10.07;98.16;99515.19;5033472;28;20242;-72
2023/10/25 08:52:38;;;;;;;9.53;7.27;;;10.90;99.90;;;10.16;97.87;99523.97;5033332;28;20692;-72
2023/10/25 08:55:10;;;;;;;7.90;6.77;;;11.10;99.90;;;10.13;96.55;99521.66;5033072;28;20724;-72
2023/10/25 08:57:39;;;;;;;9.47;6.50;;;11.10;99.90;;;10.22;97.17;99517.88;5033463;28;20203;-72
2023/10/25 09:00:09;;;;;;;11.23;7.10;;;11.10;99.90;;;10.18;95.69;99501.38;5033386;28;20301;-71
2023/10/25 09:02:39;;;;;;;9.50;7.33;;;11.10;99.90;;;10.17;94.83;99501.56;5033309;28;20264;-71
2023/10/25 09:05:08;;;;;;;9.70;7.63;;;11.00;99.90;;;10.23;96.02;99497.31;5033528;28;20313;-72
2023/10/25 09:07:37;;;;;;;11.37;8.07;;;11.00;99.90;;;10.35;97.44;99501.97;5033277;28;20206;-72
2023/10/25 09:10:15;;;;;;;10.50;6.60;;;11.20;99.90;;;10.33;96.21;99493.31;5033308;28;20206;-71
2023/10/25 09:12:44;;;;;;;8.63;7.20;;;11.20;99.90;;;10.38;96.53;99490.88;5032908;28;20581;-72
2023/10/25 09:15:12;;;;;;;10.30;7.50;;;11.30;99.90;;;10.39;96.52;99492.56;5033112;28;20227;-72
2023/10/25 09:17:40;;;;;;;9.17;6.93;;;11.30;99.90;;;10.47;96.86;99484.41;5037179;28;20293;-71
2023/10/25 09:20:10;;;;;;;9.60;7.10;;;11.40;99.90;;;10.55;95.51;99492.31;5037150;28;20600;-72
2023/10/25 09:22:38;;;;;;;8.83;6.00;;;11.50;99.90;;;10.61;95.75;99491.56;5037095;28;20317;-71
2023/10/25 09:25:07;;;;;;;7.97;6.57;;;11.50;99.90;;;10.67;95.89;99490.78;5037021;28;20226;-72
2023/10/25 09:27:43;;;;;;;8.10;7.27;;;11.60;99.90;;;10.72;95.11;99486.72;5036723;28;20744;-72
2023/10/25 09:30:13;;;;;;;8.67;7.30;;;11.60;99.90;;;10.74;94.90;99487.34;5037058;28;20190;-72
2023/10/25 09:32:46;;;;;;;8.27;7.27;;;11.60;99.90;;;10.73;95.55;99491.03;5036680;28;20700;-72
2023/10/25 09:35:14;;;;;;;8.83;7.93;;;11.60;99.90;;;10.66;94.91;99483.78;5036842;28;20238;-72
2023/10/25 09:37:43;;;;;;;10.03;8.97;;;11.50;99.90;;;10.70;96.94;99473.50;5036806;28;20293;-66
2023/10/25 09:40:13;;;;;;;9.80;7.23;;;11.50;99.90;;;10.70;94.55;99478.88;5036809;28;20207;-73
2023/10/25 09:42:52;;;;;;;8.87;7.40;;;11.50;99.90;;;10.71;93.96;99471.66;5036956;28;20211;-73
2023/10/25 09:45:29;;;;;;;7.63;6.93;;;11.50;99.90;;;10.78;95.01;99472.56;5036659;28;20230;-73
2023/10/25 09:48:05;;;;;;;9.10;6.67;;;11.60;99.90;;;10.76;94.50;99463.88;5036703;28;20564;-73
2023/10/25 09:50:38;;;;;;;9.40;6.80;;;11.60;99.90;;;10.73;94.99;99472.28;5036619;28;20191;-73
2023/10/25 09:53:18;;;;;;;9.00;6.43;;;11.50;99.90;;;10.65;94.36;99468.72;5036539;28;20187;-73
2023/10/25 09:55:54;;;;;;;7.00;5.97;;;11.50;99.90;;;10.66;94.49;99464.19;5036204;28;20803;-73
2023/10/25 09:58:25;;;;;;;6.90;6.07;;;11.50;99.90;;;10.76;93.33;99463.88;5036545;28;20206;-73
2023/10/25 10:00:54;;;;;;;7.00;6.10;;;11.60;99.90;;;10.85;93.89;99465.41;5036572;28;20615;-73
2023/10/25 10:03:32;;;;;;;6.97;5.37;;;11.70;99.90;;;10.92;93.08;99460.94;5036267;28;20629;-73
2023/10/25 10:06:09;;;;;;;5.97;5.37;;;11.70;99.90;;;10.89;92.25;99464.81;5036396;28;20264;-73
2023/10/25 10:08:48;;;;;;;7.50;5.27;;;11.70;99.90;;;10.84;91.99;99461.06;5036303;28;20222;-73
2023/10/25 10:11:24;;;;;;;6.80;5.20;;;11.60;99.90;;;10.78;91.24;99456.50;5036003;28;20649;-73
2023/10/25 10:14:27;;;;;;;8.60;5.60;;;11.60;99.90;;;10.69;92.33;99451.28;5036006;28;20645;-73
2023/10/25 10:17:08;;;;;;;6.57;5.47;;;11.50;99.90;;;10.67;92.26;99450.66;5036077;28;20237;-73
2023/10/25 10:19:43;;;;;;;6.83;5.80;;;11.40;99.90;;;10.72;93.75;99449.25;5036157;28;20194;-73
2023/10/25 10:22:13;;;;;;;6.70;5.53;;;11.50;99.90;;;10.72;93.69;99454.59;5036023;28;20210;-73
2023/10/25 10:24:47;;;;;;;7.67;5.77;;;11.50;99.90;;;10.68;92.99;99441.56;5035985;28;20189;-73
2023/10/25 10:27:17;;;;;;;6.73;5.70;;;11.40;99.90;;;10.72;92.80;99438.53;5034703;28;20297;-73
2023/10/25 10:29:48;;;;;;;6.73;5.87;;;11.40;99.90;;;10.72;92.47;99439.34;5035955;28;20187;-73
2023/10/25 10:32:18;;;;;;;7.70;5.97;;;11.50;99.90;;;10.73;92.84;99440.16;5035916;28;20187;-73
2023/10/25 10:34:49;;;;;;;7.93;5.13;;;11.50;99.90;;;10.69;92.45;99432.53;5035713;28;20319;-73
2023/10/25 10:37:20;;;;;;;9.27;5.23;;;11.40;99.90;;;10.71;92.94;99431.53;5035786;28;20198;-73